Time;durP1;ratioP1;P1;durP2;ratioP2;P2;SDS_P1;SDS_P2;PMS_P1;PMS_P2;Temp;Humidity;BMP_temperature;BMP_pressure;BME280_temperature;BME280_humidity;BME280_pressure;Samples;Min_cycle;Max_cycle;Signal;HPM_P1;HPM_P2
2022/10/21 00:01:18;;;;;;;5.40;2.45;;;5.60;1.00;;;5.92;99.75;100013.09;5022807;28;130028;-73
2022/10/21 00:03:47;;;;;;;5.78;2.33;;;5.60;1.00;;;5.87;100.00;100009.56;5022308;28;130889;-71
2022/10/21 00:06:16;;;;;;;5.30;2.30;;;5.60;1.00;;;5.86;100.00;100013.34;5007143;28;118741;-74
2022/10/21 00:08:44;;;;;;;4.55;2.15;;;5.60;1.00;;;5.87;99.87;100014.97;4995568;28;120143;-72
2022/10/21 00:11:13;;;;;;;6.57;2.50;;;5.60;1.00;;;5.82;100.00;100013.06;4999353;28;129111;-72
2022/10/21 00:13:42;;;;;;;5.45;2.50;;;5.60;1.00;;;5.82;100.00;100001.50;5019745;28;129267;-72
2022/10/21 00:16:13;;;;;;;4.75;1.98;;;5.60;1.00;;;5.82;99.73;100002.28;5021359;28;122431;-72
2022/10/21 00:18:45;;;;;;;4.10;2.25;;;5.60;1.00;;;5.92;99.44;100001.50;5008206;28;121637;-73
2022/10/21 00:21:17;;;;;;;6.15;2.25;;;5.60;1.00;;;5.94;99.15;99994.75;5006663;28;128963;-75
2022/10/21 00:23:48;;;;;;;6.47;2.42;;;5.50;1.00;;;5.99;98.97;99985.13;4980777;28;130067;-71
2022/10/21 00:26:18;;;;;;;5.55;2.17;;;5.50;1.00;;;5.98;98.56;99984.28;5000827;28;119489;-75
2022/10/21 00:28:48;;;;;;;5.95;2.13;;;5.50;1.00;;;5.98;98.07;99992.38;5002897;28;120167;-77
2022/10/21 00:31:16;;;;;;;4.85;2.10;;;5.50;1.00;;;5.97;98.17;99988.06;4987270;28;129811;-72
2022/10/21 00:33:46;;;;;;;4.63;2.25;;;5.60;1.00;;;5.94;98.09;99985.88;5002787;28;129154;-78
2022/10/21 00:36:15;;;;;;;4.22;2.03;;;5.60;1.00;;;5.89;98.52;99985.84;4985776;28;119156;-74
2022/10/21 00:38:47;;;;;;;4.53;2.03;;;5.60;1.00;;;5.86;98.67;99986.41;5001981;28;119818;-73
2022/10/21 00:41:17;;;;;;;6.45;2.03;;;5.60;1.00;;;5.89;97.97;99983.16;4982725;28;129833;-72
2022/10/21 00:44:01;;;;;;;5.40;2.20;;;5.60;1.00;;;5.85;97.57;99992.88;5019419;28;128256;-72
2022/10/21 00:46:45;;;;;;;3.88;2.03;;;5.60;1.00;;;5.88;97.63;99978.88;4974084;28;119048;-74
2022/10/21 00:49:23;;;;;;;3.72;1.85;;;5.60;1.00;;;5.85;98.15;99979.41;5021984;28;120602;-73
2022/10/21 00:51:57;;;;;;;5.22;2.03;;;5.60;1.00;;;5.88;97.08;99985.06;5021424;28;129768;-73
2022/10/21 00:54:26;;;;;;;4.95;1.83;;;5.60;1.00;;;5.90;97.78;99984.78;5003139;28;129501;-73
2022/10/21 00:56:56;;;;;;;3.67;1.55;;;5.60;1.00;;;5.93;97.40;99989.66;5017868;28;119200;-74
2022/10/21 00:59:33;;;;;;;4.00;2.03;;;5.50;1.00;;;5.90;97.29;99992.88;5004558;28;118132;-73
2022/10/21 01:02:02;;;;;;;;;;;5.50;1.00;;;5.79;97.65;100002.03;5003993;28;130248;-73
2022/10/21 01:04:32;;;;;;;4.30;1.77;;;5.50;1.00;;;5.85;98.11;99990.19;5021752;28;129237;-73
2022/10/21 01:07:02;;;;;;;3.40;1.80;;;5.50;1.00;;;5.88;97.75;99989.66;5004845;28;121619;-73
2022/10/21 01:09:31;;;;;;;4.60;2.00;;;5.50;1.00;;;5.91;97.63;99989.13;5019764;28;122063;-75
2022/10/21 01:12:02;;;;;;;4.05;1.90;;;5.50;1.00;;;5.89;97.56;99986.69;5002573;28;130358;-72
2022/10/21 01:14:47;;;;;;;4.78;1.70;;;5.50;1.00;;;5.85;97.33;99979.41;4983549;28;129006;-73
2022/10/21 01:17:33;;;;;;;5.53;2.05;;;5.50;1.00;;;5.85;97.64;99976.72;5005834;28;118909;-75
2022/10/21 01:20:46;;;;;;;3.83;2.20;;;5.60;1.00;;;5.82;98.04;99977.25;4985867;28;118588;-76
2022/10/21 01:23:55;;;;;;;3.42;1.80;;;5.50;1.00;;;5.80;98.22;99976.69;5003421;28;129510;-74
2022/10/21 01:27:10;;;;;;;5.60;2.03;;;5.50;1.00;;;5.74;98.12;99967.81;5001158;28;129377;-74
2022/10/21 01:30:37;;;;;;;3.22;1.65;;;5.50;1.00;;;5.73;97.77;99972.41;4999085;28;118419;-75
2022/10/21 01:33:41;;;;;;;4.05;1.70;;;5.50;1.00;;;5.75;97.36;99970.25;4996739;28;118998;-74
2022/10/21 01:36:28;;;;;;;3.95;1.80;;;5.60;1.00;;;5.76;97.31;99966.47;4967994;28;128826;-81
2022/10/21 01:39:13;;;;;;;5.03;2.15;;;5.60;1.00;;;5.80;97.30;99966.75;4983025;28;129662;-75
2022/10/21 01:41:48;;;;;;;5.35;2.20;;;5.60;1.00;;;5.79;96.52;99969.72;4985541;28;118825;-74
2022/10/21 01:44:25;;;;;;;3.45;1.80;;;5.60;1.00;;;5.83;96.11;99968.06;4983361;28;119156;-73
2022/10/21 01:46:59;;;;;;;4.05;1.92;;;5.60;1.00;;;5.85;95.47;99971.34;4999729;28;129921;-73
2022/10/21 01:49:33;;;;;;;3.47;1.92;;;5.60;1.00;;;5.83;95.97;99968.06;5000436;28;129413;-73
2022/10/21 01:52:03;;;;;;;3.78;1.75;;;5.60;1.00;;;5.85;95.24;99953.28;5001119;28;119603;-72
2022/10/21 01:54:38;;;;;;;5.82;2.38;;;5.50;1.00;;;5.83;95.98;99949.22;4986131;28;118607;-73
2022/10/21 01:57:10;;;;;;;6.57;2.22;;;5.50;1.00;;;5.81;95.53;99956.78;4998611;28;130422;-74
2022/10/21 01:59:42;;;;;;;4.15;1.88;;;5.50;1.00;;;5.81;95.74;99960.25;4999048;28;130000;-72
2022/10/21 02:02:12;;;;;;;4.57;2.20;;;5.50;1.00;;;5.80;95.39;99960.53;4998965;28;122119;-72
2022/10/21 02:04:44;;;;;;;4.38;2.05;;;5.50;1.00;;;5.78;95.88;99963.53;5000433;28;121591;-74
2022/10/21 02:07:13;;;;;;;4.80;2.03;;;5.50;1.00;;;5.79;95.83;99964.31;5000636;28;129842;-74
2022/10/21 02:09:41;;;;;;;6.70;2.65;;;5.40;1.00;;;5.78;96.06;99966.22;4985107;28;128617;-77
2022/10/21 02:12:11;;;;;;;7.50;4.10;;;5.40;1.00;;;5.79;95.71;99958.94;5000113;28;119610;-73
2022/10/21 02:14:45;;;;;;;8.25;4.47;;;5.40;1.00;;;5.75;96.07;99959.47;4968778;28;118615;-73
2022/10/21 02:17:18;;;;;;;4.15;1.95;;;5.30;1.00;;;5.70;96.36;99962.16;4981625;28;129542;-73
2022/10/21 02:19:49;;;;;;;4.55;2.10;;;5.40;1.00;;;5.64;96.66;99979.41;5000990;28;129515;-73
2022/10/21 02:22:22;;;;;;;4.65;2.17;;;5.40;1.00;;;5.70;96.73;99974.81;4982881;28;119845;-74
2022/10/21 02:24:56;;;;;;;4.13;1.88;;;5.40;1.00;;;5.72;96.71;99973.47;4982439;28;120643;-76
2022/10/21 02:27:25;;;;;;;6.90;2.00;;;5.40;1.00;;;5.73;96.98;99980.50;5016127;28;130089;-73
2022/10/21 02:29:57;;;;;;;5.40;1.92;;;5.40;1.00;;;5.75;96.16;99972.94;5004938;28;128928;-71
2022/10/21 02:32:37;;;;;;;4.53;1.90;;;5.50;1.00;;;5.76;95.22;99981.81;5019819;28;120111;-72
2022/10/21 02:35:26;;;;;;;7.63;2.67;;;5.50;1.00;;;5.76;95.46;99974.56;5005848;28;118584;-72
2022/10/21 02:38:01;;;;;;;4.20;2.35;;;5.50;1.00;;;5.81;94.97;99972.94;5021298;28;130120;-73
2022/10/21 02:40:36;;;;;;;6.50;2.10;;;5.50;1.00;;;5.85;95.65;99963.25;5023065;28;129379;-76
2022/10/21 02:43:10;;;;;;;5.40;2.40;;;5.50;1.00;;;5.85;95.36;99974.81;5023803;28;119694;-73
2022/10/21 02:45:40;;;;;;;4.97;2.25;;;5.50;1.00;;;5.85;95.09;99968.63;5016801;28;119421;-75
2022/10/21 02:48:08;;;;;;;4.47;2.33;;;5.50;1.00;;;5.87;95.00;99967.28;5016254;28;130560;-74
2022/10/21 02:50:38;;;;;;;5.80;3.03;;;5.60;1.00;;;5.89;94.59;99958.94;5005984;28;129761;-73
2022/10/21 02:53:11;;;;;;;5.07;2.80;;;5.60;1.00;;;5.93;94.67;99965.41;5022068;28;122408;-77
2022/10/21 02:55:39;;;;;;;4.65;2.53;;;5.60;1.00;;;5.94;94.27;99959.75;5023168;28;121695;-73
2022/10/21 02:58:08;;;;;;;7.18;2.00;;;5.50;1.00;;;5.94;94.13;99961.63;5015449;28;130290;-72
2022/10/21 03:00:37;;;;;;;4.07;2.00;;;5.50;1.00;;;5.92;94.43;99967.31;4988127;28;129333;-72
2022/10/21 03:03:05;;;;;;;4.05;2.50;;;5.60;1.00;;;5.94;94.79;99967.03;4989303;28;118877;-73
2022/10/21 03:05:34;;;;;;;4.55;2.28;;;5.60;1.00;;;5.97;93.98;99971.91;5002479;28;119948;-73
2022/10/21 03:08:05;;;;;;;7.13;3.22;;;5.60;1.00;;;5.98;94.07;99970.81;4987804;28;130794;-74
2022/10/21 03:10:34;;;;;;;10.77;4.88;;;5.60;1.00;;;5.95;94.88;99971.31;5002552;28;129633;-72
2022/10/21 03:13:02;;;;;;;9.60;5.32;;;5.60;1.00;;;5.92;94.86;99975.38;5003095;28;119597;-74
2022/10/21 03:15:31;;;;;;;6.70;3.65;;;5.50;1.00;;;5.90;95.59;99974.03;5005149;28;118907;-76
2022/10/21 03:17:59;;;;;;;6.25;2.88;;;5.50;1.00;;;5.86;95.10;99970.22;5001646;28;130338;-72
2022/10/21 03:20:28;;;;;;;6.93;2.63;;;5.50;1.00;;;5.89;95.94;99980.47;5002300;28;130539;-74
2022/10/21 03:22:56;;;;;;;3.72;1.98;;;5.60;1.00;;;5.89;95.49;99975.09;5009852;28;118987;-72
2022/10/21 03:25:26;;;;;;;6.38;2.38;;;5.60;1.00;;;5.94;95.49;99977.81;5007844;28;118667;-74
2022/10/21 03:27:55;;;;;;;4.32;2.10;;;5.60;1.00;;;5.97;95.61;99971.91;5021072;28;129998;-74
2022/10/21 03:30:23;;;;;;;6.45;1.98;;;5.60;1.00;;;5.99;95.04;99977.03;5018627;28;129895;-74
2022/10/21 03:32:51;;;;;;;4.05;2.15;;;5.60;1.00;;;6.01;94.95;99978.34;4990378;28;119293;-74
2022/10/21 03:35:20;;;;;;;5.53;2.30;;;5.60;1.00;;;5.98;94.20;99972.72;5022966;28;119070;-73
2022/10/21 03:37:49;;;;;;;5.00;2.00;;;5.60;1.00;;;5.96;94.74;99972.16;5006540;28;129595;-72
2022/10/21 03:40:18;;;;;;;4.55;2.10;;;5.70;1.00;;;5.99;94.31;99969.75;5022077;28;130357;-73
2022/10/21 03:42:48;;;;;;;7.65;2.25;;;5.60;1.00;;;6.01;94.14;99972.97;5005507;28;121661;-74
2022/10/21 03:45:17;;;;;;;4.53;2.20;;;5.70;1.00;;;6.06;93.82;99975.69;5007655;28;120621;-74
2022/10/21 03:47:47;;;;;;;3.78;1.85;;;5.70;1.00;;;6.08;93.39;99978.13;5022136;27;130272;-75
2022/10/21 03:50:16;;;;;;;6.95;2.13;;;5.60;1.00;;;6.06;93.66;99975.69;5021808;28;130296;-75
2022/10/21 03:52:45;;;;;;;4.30;2.30;;;5.60;1.00;;;6.07;93.93;99976.47;5007222;28;118971;-71
2022/10/21 03:55:13;;;;;;;3.88;2.03;;;5.70;1.00;;;6.07;93.83;99968.41;5007180;28;118435;-71
2022/10/21 03:57:42;;;;;;;5.00;2.40;;;5.60;1.00;;;6.01;93.56;99970.28;5021965;28;130414;-72
2022/10/21 04:00:14;;;;;;;3.35;1.73;;;5.60;1.00;;;6.01;93.86;99972.97;5022095;28;129921;-71
2022/10/21 04:02:43;;;;;;;3.92;1.70;;;5.70;1.00;;;6.03;93.73;99978.91;4996139;28;118336;-72
2022/10/21 04:05:13;;;;;;;4.30;1.98;;;5.70;1.00;;;5.99;93.53;99969.75;5004659;28;119577;-72
2022/10/21 04:07:42;;;;;;;5.38;2.90;;;5.70;1.00;;;5.97;94.36;99965.69;5020582;28;129589;-72
2022/10/21 04:10:11;;;;;;;5.28;2.33;;;5.70;1.00;;;5.96;93.64;99969.47;5020882;28;130052;-75
2022/10/21 04:12:39;;;;;;;4.05;2.08;;;5.70;1.00;;;5.93;92.99;99971.59;5021290;28;119717;-74
2022/10/21 04:15:12;;;;;;;3.90;1.90;;;5.70;1.00;;;5.98;92.50;99967.31;5002233;28;119782;-73
2022/10/21 04:17:41;;;;;;;6.20;2.20;;;5.80;1.00;;;5.96;92.52;99964.88;5006961;28;129012;-74
2022/10/21 04:20:12;;;;;;;3.42;1.92;;;5.80;1.00;;;6.01;91.84;99978.34;5021776;28;129838;-73
2022/10/21 04:22:41;;;;;;;5.88;2.22;;;5.80;1.00;;;6.06;92.11;99969.47;5022229;28;119550;-73
2022/10/21 04:25:09;;;;;;;4.75;2.33;;;5.80;1.00;;;6.11;90.75;99970.28;5007251;28;119072;-73
2022/10/21 04:27:38;;;;;;;5.57;2.42;;;5.80;1.00;;;6.15;90.72;99964.34;5021118;28;129567;-74
2022/10/21 04:30:09;;;;;;;6.88;2.53;;;5.80;1.00;;;6.21;90.41;99971.38;5021199;28;129710;-72
2022/10/21 04:32:38;;;;;;;4.75;2.47;;;5.80;1.00;;;6.26;90.19;99963.25;5020576;28;121776;-73
2022/10/21 04:35:07;;;;;;;5.65;2.20;;;5.90;1.00;;;6.28;90.69;99969.22;5006958;28;121312;-73
2022/10/21 04:37:38;;;;;;;4.95;2.38;;;5.80;1.00;;;6.30;90.65;99967.03;5021643;28;130268;-71
2022/10/21 04:40:09;;;;;;;8.30;3.10;;;5.80;1.00;;;6.28;90.91;99972.72;5021110;28;129499;-71
2022/10/21 04:42:39;;;;;;;8.10;5.00;;;5.80;1.00;;;6.23;91.15;99969.19;5021534;28;119679;-73
2022/10/21 04:45:09;;;;;;;14.68;5.35;;;5.70;1.00;;;6.19;91.90;99968.13;5021541;28;119719;-72
2022/10/21 04:47:39;;;;;;;11.07;5.13;;;5.70;1.00;;;6.19;92.85;99968.13;5021731;28;129466;-75
2022/10/21 04:50:08;;;;;;;16.52;5.25;;;5.70;1.00;;;6.18;93.00;99971.91;5021419;28;129060;-74
2022/10/21 04:52:37;;;;;;;7.88;4.63;;;5.70;1.00;;;6.12;93.22;99963.00;5020076;28;119734;-76
2022/10/21 04:55:07;;;;;;;9.25;4.55;;;5.70;1.00;;;6.08;93.35;99962.75;4990000;28;118362;-71
2022/10/21 04:57:36;;;;;;;9.52;5.28;;;5.70;1.00;;;6.06;93.75;99961.38;5019577;28;129628;-74
2022/10/21 05:00:06;;;;;;;9.52;4.63;;;5.70;1.00;;;6.09;93.82;99967.06;5020600;28;129397;-73
2022/10/21 05:02:35;;;;;;;9.13;5.25;;;5.70;1.00;;;6.17;93.25;99971.09;5003308;28;119529;-74
2022/10/21 05:05:06;;;;;;;13.13;6.90;;;5.70;1.00;;;6.22;93.25;99973.00;5006385;28;118806;-72
2022/10/21 05:07:34;;;;;;;15.05;8.55;;;5.80;1.00;;;6.08;94.15;99967.34;4989437;28;128822;-73
2022/10/21 05:10:03;;;;;;;9.57;4.45;;;5.70;1.00;;;5.97;91.62;99966.53;5020864;28;129172;-73
2022/10/21 05:12:32;;;;;;;16.23;9.48;;;5.70;1.00;;;5.94;92.14;99977.81;5020964;28;119235;-72
2022/10/21 05:15:01;;;;;;;16.80;9.77;;;5.70;1.00;;;5.92;92.36;99974.56;4989833;28;118891;-71
2022/10/21 05:17:29;;;;;;;9.32;5.35;;;5.70;1.00;;;6.00;91.33;99971.38;5020745;28;129836;-71
2022/10/21 05:19:58;;;;;;;8.23;4.60;;;5.80;1.00;;;6.12;90.41;99968.38;5020542;28;129668;-71
2022/10/21 05:22:28;;;;;;;7.43;3.42;;;5.80;1.00;;;6.22;88.65;99973.00;5019859;28;121759;-72
2022/10/21 05:24:56;;;;;;;8.23;2.88;;;5.90;1.00;;;6.28;87.50;99978.09;5005991;28;122212;-72
2022/10/21 05:27:25;;;;;;;5.03;2.70;;;6.00;1.00;;;6.33;85.47;99979.97;5020471;28;130091;-72
2022/10/21 05:29:54;;;;;;;5.25;2.72;;;6.00;1.00;;;6.37;84.34;99981.03;5020586;28;129584;-71
2022/10/21 05:32:22;;;;;;;9.65;3.92;;;6.20;1.00;;;6.42;83.54;99972.13;5020653;28;119419;-72
2022/10/21 05:34:51;;;;;;;8.40;2.92;;;6.30;1.00;;;6.47;83.25;99970.25;5020749;28;119466;-72
2022/10/21 05:37:19;;;;;;;5.07;2.15;;;6.30;1.00;;;6.55;82.34;99970.78;5020504;28;131818;-71
2022/10/21 05:39:50;;;;;;;6.53;2.38;;;6.40;1.00;;;6.57;82.54;99971.31;5020557;28;129876;-75
2022/10/21 05:42:18;;;;;;;5.45;2.40;;;6.40;1.00;;;6.64;82.35;99971.84;5020966;28;119568;-73
2022/10/21 05:44:47;;;;;;;5.55;2.58;;;6.40;1.00;;;6.71;82.67;99975.03;5020715;28;120106;-72
2022/10/21 05:47:15;;;;;;;6.07;2.28;;;6.50;1.00;;;6.75;81.97;99986.13;5019035;28;130250;-74
2022/10/21 05:49:44;;;;;;;7.28;2.58;;;6.50;1.00;;;6.78;81.93;99975.56;5020407;28;129752;-73
2022/10/21 05:52:13;;;;;;;7.60;2.40;;;6.50;1.00;;;6.81;82.06;99980.41;5020695;28;119591;-73
2022/10/21 05:54:42;;;;;;;4.82;2.17;;;6.50;1.00;;;6.88;81.35;99982.03;5020757;28;119025;-72
2022/10/21 05:57:12;;;;;;;8.93;2.85;;;6.60;1.00;;;6.90;80.56;99985.25;5002072;28;129920;-74
2022/10/21 05:59:40;;;;;;;7.47;2.47;;;6.60;1.00;;;6.92;80.57;99993.84;5019881;28;129433;-73
2022/10/21 06:02:10;;;;;;;5.15;2.45;;;6.60;1.00;;;6.96;80.80;99997.63;5020605;28;119467;-71
2022/10/21 06:04:39;;;;;;;6.38;2.80;;;6.60;1.00;;;6.97;81.95;99994.66;5022679;28;119617;-72
2022/10/21 06:07:08;;;;;;;5.22;2.95;;;6.60;1.00;;;7.04;82.19;99991.66;5001829;28;129750;-72
2022/10/21 06:09:36;;;;;;;5.85;2.42;;;6.70;1.00;;;7.01;80.99;99990.34;5016767;28;129575;-73
2022/10/21 06:12:06;;;;;;;6.13;2.45;;;6.60;1.00;;;7.02;81.36;99997.34;5003868;28;120812;-72
2022/10/21 06:14:36;;;;;;;6.90;2.80;;;6.60;1.00;;;7.05;82.35;99993.28;5019603;28;121437;-73
2022/10/21 06:17:05;;;;;;;7.13;2.95;;;6.70;1.00;;;7.12;82.21;100007.31;4987837;28;128880;-73
2022/10/21 06:19:33;;;;;;;7.82;2.47;;;6.60;1.00;;;7.03;82.81;99998.16;5019389;28;129380;-73
2022/10/21 06:22:02;;;;;;;7.18;2.85;;;6.60;1.00;;;7.06;83.39;99986.81;4998001;28;120663;-73
2022/10/21 06:24:31;;;;;;;11.15;2.75;;;6.70;1.00;;;7.13;82.86;99992.72;5001173;28;118830;-73
2022/10/21 06:27:00;;;;;;;8.18;2.72;;;6.70;1.00;;;7.12;83.74;99991.13;5004208;28;130275;-73
2022/10/21 06:29:29;;;;;;;5.93;2.67;;;6.60;1.00;;;7.15;83.87;99984.34;5004984;28;128678;-73
2022/10/21 06:31:59;;;;;;;7.82;2.83;;;6.70;1.00;;;7.20;84.26;99987.03;5004895;28;118220;-74
2022/10/21 06:34:27;;;;;;;8.65;3.13;;;6.60;1.00;;;7.22;84.64;99987.56;5019497;28;119888;-73
2022/10/21 06:36:56;;;;;;;6.95;3.08;;;6.70;1.00;;;7.31;84.49;99982.41;5017771;28;130113;-73
2022/10/21 06:39:25;;;;;;;7.07;2.80;;;6.70;1.00;;;7.34;84.87;99981.84;5003949;28;129191;-73
2022/10/21 06:41:53;;;;;;;5.05;3.05;;;6.70;1.00;;;7.37;84.47;99981.28;4998434;28;119683;-75
2022/10/21 06:44:41;;;;;;;6.00;3.05;;;6.80;1.00;;;7.30;86.39;99986.16;4998713;28;119910;-74
2022/10/21 06:47:10;;;;;;;6.85;2.60;;;6.70;1.00;;;7.31;86.68;99971.59;4999233;28;129802;-73
2022/10/21 06:49:39;;;;;;;6.63;3.00;;;6.80;1.00;;;7.35;87.84;99978.03;4999185;28;129673;-74
2022/10/21 06:52:08;;;;;;;6.85;2.78;;;6.80;1.00;;;7.38;87.17;99977.47;4999352;28;119563;-73
2022/10/21 06:54:36;;;;;;;8.75;2.80;;;6.90;1.00;;;7.37;86.58;99975.88;5001418;28;119496;-73
2022/10/21 06:57:05;;;;;;;10.07;3.47;;;6.90;1.00;;;7.43;86.71;99974.75;4967793;28;128666;-74
2022/10/21 06:59:34;;;;;;;6.88;3.25;;;7.00;1.00;;;7.58;86.14;99975.75;4999007;28;130093;-74
2022/10/21 07:02:02;;;;;;;11.65;9.35;;;7.10;1.00;;;7.62;85.02;99974.09;4983394;28;121373;-73
2022/10/21 07:04:32;;;;;;;10.13;6.53;;;7.10;1.00;;;7.71;84.48;99969.72;4984240;28;121027;-73
2022/10/21 07:07:01;;;;;;;11.48;6.07;;;7.10;1.00;;;7.76;84.42;99967.00;4998728;28;130574;-74
2022/10/21 07:09:30;;;;;;;13.18;4.40;;;7.20;1.00;;;7.88;84.45;99964.75;5001856;28;129448;-74
2022/10/21 07:12:00;;;;;;;6.95;3.28;;;7.20;1.00;;;8.03;84.14;99966.50;4999135;28;119743;-72
2022/10/21 07:14:29;;;;;;;7.03;2.90;;;7.30;1.00;;;8.17;83.45;99961.25;4984373;28;118904;-72
2022/10/21 07:16:57;;;;;;;9.70;3.72;;;7.40;1.00;;;8.25;83.70;99957.94;4998821;28;131303;-75
2022/10/21 07:19:26;;;;;;;7.93;3.10;;;7.50;1.00;;;8.16;83.64;99959.63;4999327;28;129654;-73
2022/10/21 07:21:56;;;;;;;8.77;3.10;;;7.30;1.00;;;8.14;83.74;99967.22;4998987;28;119694;-73
2022/10/21 07:24:25;;;;;;;7.93;2.75;;;7.40;1.00;;;8.07;84.10;99966.75;4989646;28;119332;-75
2022/10/21 07:26:54;;;;;;;6.95;2.88;;;7.30;1.00;;;8.00;84.94;99977.88;5001369;28;129836;-73
2022/10/21 07:29:23;;;;;;;8.05;2.60;;;7.30;1.00;;;8.02;84.86;99985.72;5002165;28;129402;-75
2022/10/21 07:31:52;;;;;;;9.18;3.05;;;7.30;1.00;;;8.08;85.18;99979.97;5002410;28;119326;-73
2022/10/21 07:34:20;;;;;;;8.18;2.75;;;7.40;1.00;;;8.19;84.72;99982.59;4987061;28;118448;-74
2022/10/21 07:36:51;;;;;;;7.95;2.97;;;7.50;1.00;;;8.30;84.74;99967.09;4986789;28;129434;-73
2022/10/21 07:39:25;;;;;;;6.25;2.72;;;7.60;1.00;;;8.37;84.17;99975.69;4986741;28;129213;-76
2022/10/21 07:41:56;;;;;;;7.88;2.97;;;7.60;1.00;;;8.40;83.37;99972.41;4970933;28;119725;-74
2022/10/21 07:44:26;;;;;;;6.97;2.97;;;7.60;1.00;;;8.46;83.61;99974.00;4988023;28;118425;-74
2022/10/21 07:46:56;;;;;;;6.70;3.03;;;7.60;1.00;;;8.49;83.45;99969.91;4987157;28;129112;-75
2022/10/21 07:49:25;;;;;;;8.90;3.33;;;7.60;1.00;;;8.53;83.58;99974.47;5001412;28;130014;-76
2022/10/21 07:51:54;;;;;;;10.75;4.10;;;7.50;1.00;;;8.58;83.50;99965.50;4983113;28;122644;-74
2022/10/21 07:54:23;;;;;;;7.95;3.70;;;7.50;1.00;;;8.59;83.44;99964.41;4983854;28;122346;-75
2022/10/21 07:56:53;;;;;;;10.35;3.70;;;7.60;1.00;;;8.68;82.91;99961.88;4986878;28;129048;-74
2022/10/21 07:59:23;;;;;;;12.38;4.40;;;7.70;1.00;;;8.74;82.85;99952.59;4986846;28;129106;-75
2022/10/21 08:01:52;;;;;;;11.13;3.85;;;7.70;1.00;;;8.79;82.09;99960.69;4987033;28;119183;-75
2022/10/21 08:04:28;;;;;;;7.53;3.30;;;7.70;1.00;;;8.79;81.93;99955.28;5002251;28;119413;-73
2022/10/21 08:06:57;;;;;;;8.73;3.43;;;7.60;1.00;;;8.82;80.99;99966.31;5006239;28;130177;-73
2022/10/21 08:09:27;;;;;;;7.85;4.03;;;7.70;1.00;;;8.92;80.74;99965.38;5021676;28;129336;-74
2022/10/21 08:11:56;;;;;;;9.82;3.92;;;7.80;1.00;;;9.11;80.17;99959.22;5021269;28;119838;-74
2022/10/21 08:14:24;;;;;;;6.25;3.15;;;8.00;1.00;;;9.21;78.07;99961.78;5021604;28;119771;-75
2022/10/21 08:16:54;;;;;;;8.23;3.60;;;8.00;1.00;;;9.39;77.46;99957.47;5020148;28;129748;-73
2022/10/21 08:19:28;;;;;;;11.90;3.42;;;8.20;1.00;;;9.58;77.45;99962.91;5021075;28;129461;-74
2022/10/21 08:21:58;;;;;;;9.40;4.38;;;8.40;1.00;;;9.64;76.71;99961.72;5021531;28;120121;-74
2022/10/21 08:24:29;;;;;;;7.53;3.95;;;8.50;1.00;;;9.68;75.91;99960.03;5003597;28;119492;-74
2022/10/21 08:26:57;;;;;;;5.82;3.00;;;8.40;1.00;;;9.69;72.74;99953.53;5005919;28;129611;-74
2022/10/21 08:29:26;;;;;;;5.53;3.17;;;8.20;1.00;;;9.68;72.09;99962.75;5003140;28;129834;-74
2022/10/21 08:32:00;;;;;;;8.63;3.65;;;8.40;1.00;;;9.87;72.43;99961.94;5021645;28;119772;-73
2022/10/21 08:34:29;;;;;;;7.45;3.00;;;8.70;1.00;;;9.97;71.51;99967.22;5020647;28;119708;-73
2022/10/21 08:36:58;;;;;;;5.53;3.25;;;8.80;1.00;;;9.96;69.85;99957.44;5006302;28;129638;-74
2022/10/21 08:39:29;;;;;;;6.13;3.00;;;8.60;1.00;;;9.98;68.30;99968.78;5021005;28;129430;-76
2022/10/21 08:42:10;;;;;;;6.13;3.17;;;8.60;1.00;;;10.03;68.72;99948.94;5005428;28;121804;-75
2022/10/21 08:44:47;;;;;;;6.32;2.85;;;8.70;1.00;;;10.12;67.68;99957.19;5003173;28;120831;-76
2022/10/21 08:47:25;;;;;;;6.03;2.75;;;8.90;1.00;;;10.37;66.08;99959.50;5021338;28;130566;-76
2022/10/21 08:50:02;;;;;;;6.05;3.05;;;8.80;1.00;;;10.44;66.09;99950.97;5021162;28;129553;-74
2022/10/21 08:52:38;;;;;;;;;;;9.00;1.00;;;10.54;67.19;99958.13;5007184;28;118563;-75
2022/10/21 08:55:18;;;;;;;7.78;3.30;;;9.30;1.00;;;10.76;67.24;99944.66;4990001;28;119245;-74
2022/10/21 08:57:49;;;;;;;4.75;2.42;;;9.50;1.00;;;10.91;62.81;99950.91;5005670;28;127761;-74
2022/10/21 09:00:21;;;;;;;6.25;2.72;;;9.60;1.00;;;11.00;60.73;99943.66;5006936;28;128192;-75
2022/10/21 09:03:09;;;;;;;7.68;2.72;;;9.50;1.00;;;11.08;60.92;99951.09;4976317;28;103089;-75
2022/10/21 09:06:24;;;;;;;6.07;2.03;;;9.70;1.00;;;11.03;57.88;99953.91;5019911;28;119355;-75
2022/10/21 09:09:06;;;;;;;3.67;2.05;;;9.50;1.00;;;11.23;57.52;99951.84;4979521;28;129692;-75
2022/10/21 09:11:52;;;;;;;9.80;2.10;;;9.80;1.00;;;11.29;55.68;99943.28;4982297;28;129498;-75
2022/10/21 09:15:06;;;;;;;3.97;1.73;;;9.40;1.00;;;10.92;57.25;99941.63;4986286;28;119151;-74
2022/10/21 09:18:05;;;;;;;4.18;2.08;;;9.40;1.00;;;11.11;56.71;99945.03;4999353;28;119586;-75
2022/10/21 09:20:54;;;;;;;4.78;2.30;;;9.40;1.00;;;11.29;56.35;99939.78;4978749;28;129716;-74
2022/10/21 09:23:53;;;;;;;7.35;2.50;;;9.60;1.00;;;11.47;56.81;99946.97;5000103;28;129349;-76
2022/10/21 09:26:40;;;;;;;5.80;2.05;;;9.90;1.00;;;11.39;55.56;99942.28;4981360;28;118947;-74
2022/10/21 09:29:43;;;;;;;5.55;2.45;;;9.70;1.00;;;11.37;56.67;99941.75;4986300;28;119878;-73
2022/10/21 09:32:17;;;;;;;5.53;2.60;;;9.80;1.00;;;11.68;56.75;99930.97;4942543;28;129823;-75
2022/10/21 09:34:54;;;;;;;4.60;2.25;;;10.10;1.00;;;11.84;54.51;99928.72;5000132;28;129390;-76
2022/10/21 09:37:30;;;;;;;4.60;2.00;;;10.10;1.00;;;11.77;54.60;99931.06;4998976;28;121748;-75
2022/10/21 09:40:09;;;;;;;3.85;2.00;;;9.80;1.00;;;11.67;53.69;99926.69;5000280;28;121773;-74
2022/10/21 09:42:39;;;;;;;3.97;2.15;;;9.70;1.00;;;11.66;53.79;99916.91;4985312;28;129458;-74
2022/10/21 09:45:21;;;;;;;4.20;1.92;;;9.60;1.00;;;11.58;53.89;99919.56;4999779;28;129282;-75
2022/10/21 09:47:58;;;;;;;5.50;2.10;;;9.50;1.00;;;11.48;53.86;99920.59;5001661;28;120762;-75
2022/10/21 09:50:27;;;;;;;;;;;9.50;1.00;;;11.31;53.92;99918.53;4986198;28;118930;-74
2022/10/21 09:53:08;;;;;;;4.30;2.10;;;9.70;1.00;;;11.29;55.60;99928.91;4985161;28;129767;-75
2022/10/21 09:55:38;;;;;;;4.82;2.10;;;9.70;1.00;;;11.21;54.23;99922.28;4985238;28;129238;-75
2022/10/21 09:58:23;;;;;;;3.35;1.80;;;9.60;1.00;;;11.13;54.38;99926.53;5000178;28;120552;-74
2022/10/21 10:00:52;;;;;;;4.20;1.80;;;9.50;1.00;;;11.09;55.25;99922.78;5001018;28;119304;-74
2022/10/21 10:03:32;;;;;;;4.22;1.98;;;9.70;1.00;;;10.89;55.06;99924.06;4970906;28;129082;-77
2022/10/21 10:06:02;;;;;;;5.97;2.00;;;9.60;1.00;;;10.86;55.87;99915.69;5002246;28;129152;-74
2022/10/21 10:08:38;;;;;;;5.70;1.80;;;9.50;1.00;;;11.01;58.09;99912.66;4999904;28;119583;-74
2022/10/21 10:11:19;;;;;;;8.73;2.10;;;9.80;1.00;;;10.90;55.84;99922.94;5005956;28;120523;-76
2022/10/21 10:13:51;;;;;;;4.03;2.00;;;9.70;1.00;;;10.75;56.33;99915.91;5001899;28;130051;-75
2022/10/21 10:16:28;;;;;;;3.88;1.92;;;9.50;1.00;;;10.59;56.14;99918.09;4999580;28;130187;-75
2022/10/21 10:19:15;;;;;;;4.43;1.73;;;9.40;1.00;;;10.63;55.83;99914.78;5000016;28;119457;-76
2022/10/21 10:21:44;;;;;;;3.33;1.73;;;9.50;1.00;;;10.77;56.50;99921.84;4985337;28;119135;-75
2022/10/21 10:24:21;;;;;;;5.28;1.67;;;9.60;1.00;;;10.67;56.43;99924.75;4985832;28;129207;-74
2022/10/21 10:26:50;;;;;;;4.90;1.95;;;9.50;1.00;;;10.68;57.01;99926.34;4999400;28;129556;-76
2022/10/21 10:29:27;;;;;;;6.07;1.90;;;9.40;1.00;;;10.52;56.70;99917.72;4985399;28;121377;-76
2022/10/21 10:32:00;;;;;;;7.95;2.58;;;9.20;1.00;;;10.35;57.99;99918.28;5002109;28;121205;-76
2022/10/21 10:34:35;;;;;;;6.88;2.20;;;9.20;1.00;;;10.41;59.14;99906.25;4968141;28;129501;-76
2022/10/21 10:37:11;;;;;;;5.18;2.28;;;9.30;1.00;;;10.49;59.13;99901.25;4984815;28;128896;-75
2022/10/21 10:39:40;;;;;;;5.87;2.40;;;9.50;1.00;;;10.46;58.51;99894.50;5000338;28;119414;-75
2022/10/21 10:42:09;;;;;;;9.38;2.72;;;9.40;1.00;;;10.37;58.42;99894.38;5000331;28;119682;-78
2022/10/21 10:44:42;;;;;;;4.85;2.60;;;9.20;1.00;;;10.32;58.46;99897.16;5001963;28;130409;-75
2022/10/21 10:47:29;;;;;;;5.60;2.25;;;9.10;1.00;;;10.17;59.19;99895.53;4970098;28;129696;-76
2022/10/21 10:49:58;;;;;;;8.32;2.35;;;9.00;1.00;;;9.99;60.06;99894.50;5000054;28;119444;-75
2022/10/21 10:52:26;;;;;;;6.65;2.30;;;9.00;1.00;;;10.06;61.17;99891.38;5011721;28;119404;-76
2022/10/21 10:55:18;;;;;;;6.10;2.70;;;9.00;1.00;;;9.94;61.82;99891.06;5019175;28;130781;-77